createdAt,value
2022-10-12T00:00:05.411Z,11.37
2022-10-12T00:02:32.359Z,11.80
2022-10-12T00:04:59.211Z,11.67
2022-10-12T00:07:26.083Z,12.10
2022-10-12T00:09:52.914Z,11.80
2022-10-12T00:12:19.720Z,12.10
2022-10-12T00:14:46.563Z,10.93
2022-10-12T00:17:13.368Z,11.47
2022-10-12T00:19:40.588Z,12.93
2022-10-12T00:22:07.449Z,11.87
2022-10-12T00:24:34.205Z,12.03
2022-10-12T00:27:01.162Z,11.73
2022-10-12T00:29:29.333Z,11.60
2022-10-12T00:31:56.105Z,12.30
2022-10-12T00:34:22.848Z,11.30
2022-10-12T00:36:49.684Z,12.73
2022-10-12T00:39:16.467Z,12.23
2022-10-12T00:41:44.061Z,12.30
2022-10-12T00:44:32.511Z,12.57
2022-10-12T00:47:01.195Z,12.17
2022-10-12T00:49:28.345Z,12.57
2022-10-12T00:52:01.798Z,11.80
2022-10-12T00:54:33.581Z,12.33
2022-10-12T00:57:04.258Z,11.93
2022-10-12T00:59:44.557Z,12.00
2022-10-12T01:02:12.767Z,12.17
2022-10-12T01:04:40.312Z,11.47
2022-10-12T01:07:07.419Z,12.07
2022-10-12T01:09:34.236Z,12.57
2022-10-12T01:12:03.727Z,11.43
2022-10-12T01:14:30.508Z,11.77
2022-10-12T01:17:01.567Z,11.37
2022-10-12T01:19:48.567Z,11.37
2022-10-12T01:22:20.799Z,11.77
2022-10-12T01:24:51.833Z,12.57
2022-10-12T01:27:34.276Z,11.73
2022-10-12T01:30:22.154Z,11.33
2022-10-12T01:33:09.303Z,11.90
2022-10-12T01:36:16.616Z,11.67
2022-10-12T01:38:43.389Z,11.20
2022-10-12T01:41:22.543Z,11.47
2022-10-12T01:43:51.755Z,12.30
2022-10-12T01:46:18.521Z,11.40
2022-10-12T01:48:47.667Z,12.00
2022-10-12T01:51:31.732Z,11.77
2022-10-12T01:54:22.899Z,11.67
2022-10-12T01:56:55.899Z,11.50
2022-10-12T01:59:43.043Z,11.77
2022-10-12T02:02:38.637Z,11.47
2022-10-12T02:05:31.090Z,11.67
2022-10-12T02:08:23.850Z,12.10
2022-10-12T02:10:59.554Z,11.20
2022-10-12T02:13:32.499Z,11.90
2022-10-12T02:16:03.447Z,11.17
2022-10-12T02:18:31.745Z,11.73
2022-10-12T02:21:01.022Z,11.37
2022-10-12T02:23:28.709Z,12.43
2022-10-12T02:25:58.518Z,11.80
2022-10-12T02:28:28.149Z,11.90
2022-10-12T02:31:33.517Z,11.40
2022-10-12T02:34:11.822Z,12.00
2022-10-12T02:36:49.766Z,10.67
2022-10-12T02:39:29.405Z,11.00
2022-10-12T02:42:01.699Z,10.60
2022-10-12T02:44:33.477Z,11.17
2022-10-12T02:47:04.460Z,11.10
2022-10-12T02:49:34.208Z,11.23
2022-10-12T02:52:05.848Z,11.73
2022-10-12T02:54:33.012Z,10.90
2022-10-12T02:57:00.001Z,11.23
2022-10-12T02:59:26.883Z,10.93
2022-10-12T03:01:53.637Z,12.07
2022-10-12T03:04:20.620Z,12.13
2022-10-12T03:06:47.981Z,12.10
2022-10-12T03:09:14.795Z,11.07
2022-10-12T03:11:44.779Z,11.63
2022-10-12T03:14:13.431Z,11.53
2022-10-12T03:16:40.335Z,12.90
2022-10-12T03:19:07.504Z,11.90
2022-10-12T03:21:34.885Z,11.80
2022-10-12T03:24:01.994Z,11.87
2022-10-12T03:26:28.775Z,12.20
2022-10-12T03:28:55.685Z,12.23
2022-10-12T03:31:23.069Z,12.10
2022-10-12T03:33:49.956Z,12.07
2022-10-12T03:36:17.010Z,11.60
2022-10-12T03:38:43.768Z,11.47
2022-10-12T03:41:10.605Z,11.30
2022-10-12T03:43:37.453Z,12.20
2022-10-12T03:46:04.314Z,12.00
2022-10-12T03:48:31.130Z,11.97
2022-10-12T03:50:58.427Z,12.23
2022-10-12T03:53:25.763Z,11.53
2022-10-12T03:55:52.732Z,12.70
2022-10-12T03:58:19.819Z,12.87
2022-10-12T04:00:46.883Z,12.70
2022-10-12T04:03:13.731Z,12.27
2022-10-12T04:05:40.983Z,12.90
2022-10-12T04:08:07.772Z,12.60
2022-10-12T04:10:34.727Z,12.57
2022-10-12T04:13:01.597Z,12.37
2022-10-12T04:15:28.490Z,12.17
2022-10-12T04:17:55.298Z,13.17
2022-10-12T04:20:22.134Z,12.47
2022-10-12T04:22:49.019Z,12.63
2022-10-12T04:25:15.919Z,13.23
2022-10-12T04:27:43.159Z,13.03
2022-10-12T04:30:10.923Z,13.27
2022-10-12T04:32:37.784Z,12.57
2022-10-12T04:35:04.844Z,13.23
2022-10-12T04:37:31.784Z,13.10
2022-10-12T04:39:58.751Z,13.50
2022-10-12T04:42:25.561Z,13.47
2022-10-12T04:44:52.382Z,13.50
2022-10-12T04:47:19.531Z,12.87
2022-10-12T04:49:46.389Z,13.70
2022-10-12T04:52:13.270Z,13.03
2022-10-12T04:54:40.329Z,13.33
2022-10-12T04:57:07.150Z,14.13
2022-10-12T04:59:33.937Z,13.83
2022-10-12T05:02:00.804Z,12.83
2022-10-12T05:04:27.693Z,13.50
2022-10-12T05:06:54.743Z,13.43
2022-10-12T05:09:21.676Z,12.77
2022-10-12T05:11:48.591Z,12.97
2022-10-12T05:14:15.628Z,13.03
2022-10-12T05:16:42.469Z,13.40
2022-10-12T05:19:09.469Z,14.30
2022-10-12T05:24:28.801Z,12.27
2022-10-12T05:26:56.895Z,12.97
2022-10-12T05:29:24.006Z,13.47
2022-10-12T05:31:50.855Z,12.90
2022-10-12T05:34:48.844Z,12.80
2022-10-12T05:40:15.971Z,12.63
2022-10-12T05:42:44.694Z,12.97
2022-10-12T05:45:12.075Z,12.63
2022-10-12T05:47:39.959Z,13.27
2022-10-12T05:50:07.650Z,12.97
2022-10-12T05:52:34.441Z,13.27
2022-10-12T05:55:01.322Z,13.10
2022-10-12T05:57:31.177Z,13.67
2022-10-12T05:59:58.318Z,13.13
2022-10-12T06:02:32.934Z,13.50
2022-10-12T06:05:05.778Z,13.03
2022-10-12T06:07:41.564Z,13.47
2022-10-12T06:10:30.069Z,13.10
2022-10-12T06:16:33.762Z,13.70
2022-10-12T06:19:00.609Z,13.93
2022-10-12T06:21:33.576Z,14.97
2022-10-12T06:29:37.013Z,14.60
2022-10-12T06:42:26.788Z,13.93
2022-10-12T06:45:11.735Z,13.83
2022-10-12T06:48:40.121Z,13.53
2022-10-12T07:01:56.874Z,13.30
2022-10-12T07:04:41.798Z,13.57
2022-10-12T07:18:13.516Z,13.60
2022-10-12T07:20:44.957Z,12.73
2022-10-12T07:31:30.924Z,12.20
2022-10-12T07:33:57.748Z,12.03
2022-10-12T07:36:58.197Z,12.83
2022-10-12T07:39:25.530Z,12.97
2022-10-12T07:41:52.880Z,12.27
2022-10-12T07:44:32.751Z,12.00
2022-10-12T07:46:59.662Z,12.00
2022-10-12T07:49:26.430Z,11.27
2022-10-12T07:51:53.716Z,10.50
2022-10-12T07:54:23.493Z,10.87
2022-10-12T07:56:53.825Z,9.57
2022-10-12T07:59:20.603Z,9.40
2022-10-12T08:01:47.598Z,9.70
2022-10-12T08:07:12.268Z,9.57
2022-10-12T08:09:57.977Z,8.50
2022-10-12T08:13:02.875Z,7.87
2022-10-12T08:15:29.851Z,7.90
2022-10-12T08:17:58.994Z,8.43
2022-10-12T08:20:34.983Z,7.90
2022-10-12T08:23:01.829Z,8.03
2022-10-12T08:25:29.252Z,8.03
2022-10-12T08:28:11.370Z,8.70
2022-10-12T08:42:56.609Z,7.93
2022-10-12T09:13:32.339Z,6.10
2022-10-12T09:17:12.977Z,6.10
2022-10-12T09:19:45.879Z,5.60
2022-10-12T09:22:40.458Z,5.70
2022-10-12T09:27:45.036Z,5.37
2022-10-12T09:30:15.671Z,5.27
2022-10-12T09:33:08.182Z,4.90
2022-10-12T09:35:36.971Z,5.80
2022-10-12T09:38:04.128Z,4.70
2022-10-12T09:43:08.918Z,4.00
2022-10-12T09:45:36.738Z,3.90
2022-10-12T09:48:22.441Z,4.33
2022-10-12T09:51:02.060Z,3.57
2022-10-12T09:53:51.241Z,3.53
2022-10-12T09:56:46.550Z,2.77
2022-10-12T09:59:32.182Z,2.70
2022-10-12T10:02:07.869Z,2.90
2022-10-12T10:04:35.298Z,2.27
2022-10-12T10:07:35.394Z,2.20
2022-10-12T10:10:30.139Z,2.13
2022-10-12T10:13:03.033Z,2.23
2022-10-12T10:15:31.527Z,2.47
2022-10-12T10:18:01.411Z,2.60
2022-10-12T10:20:43.479Z,2.03
2022-10-12T10:23:27.021Z,2.17
2022-10-12T10:26:08.160Z,2.10
2022-10-12T10:28:37.710Z,1.80
2022-10-12T10:31:22.229Z,2.00
2022-10-12T10:34:12.810Z,2.07
2022-10-12T10:36:56.002Z,1.80
2022-10-12T10:39:30.725Z,1.97
2022-10-12T10:42:10.356Z,2.00
2022-10-12T10:44:38.845Z,1.90
2022-10-12T10:47:13.367Z,2.00
2022-10-12T10:49:49.669Z,2.50
2022-10-12T10:52:24.275Z,2.20
2022-10-12T10:55:14.937Z,2.13
2022-10-12T10:57:48.379Z,1.93
2022-10-12T11:00:39.224Z,2.35
2022-10-12T11:06:06.727Z,2.30
2022-10-12T11:08:35.942Z,2.10
2022-10-12T11:11:18.304Z,2.40
2022-10-12T11:14:01.221Z,2.30
2022-10-12T11:16:36.271Z,1.95
2022-10-12T11:19:36.795Z,2.30
2022-10-12T11:22:24.389Z,2.22
2022-10-12T11:25:06.563Z,2.00
2022-10-12T11:27:40.657Z,1.90
2022-10-12T11:30:18.066Z,2.05
2022-10-12T11:32:45.444Z,2.10
2022-10-12T11:35:23.481Z,2.30
2022-10-12T11:38:03.182Z,2.00
2022-10-12T11:43:34.218Z,2.25
2022-10-12T11:46:08.157Z,2.15
2022-10-12T11:48:56.028Z,2.35
2022-10-12T11:51:22.821Z,2.40
2022-10-12T11:54:11.686Z,2.40
2022-10-12T11:56:48.830Z,2.25
2022-10-12T11:59:44.923Z,2.03
2022-10-12T12:02:29.790Z,2.20
2022-10-12T12:04:57.053Z,1.92
2022-10-12T12:07:45.577Z,2.58
2022-10-12T12:10:37.304Z,2.40
2022-10-12T12:13:19.404Z,2.20
2022-10-12T12:15:52.166Z,2.45
2022-10-12T12:19:08.919Z,2.40
2022-10-12T12:22:15.192Z,2.42
2022-10-12T12:25:08.011Z,2.30
2022-10-12T12:27:42.197Z,2.28
2022-10-12T12:33:15.753Z,2.03
2022-10-12T12:36:04.899Z,2.15
2022-10-12T12:38:51.440Z,2.55
2022-10-12T12:41:48.739Z,2.45
2022-10-12T12:44:34.070Z,2.50
2022-10-12T12:47:00.955Z,2.60
2022-10-12T12:49:46.980Z,2.40
2022-10-12T12:52:34.043Z,2.30
2022-10-12T12:55:16.535Z,2.17
2022-10-12T12:58:02.055Z,1.67
2022-10-12T13:03:59.477Z,2.03
2022-10-12T13:06:59.122Z,2.20
2022-10-12T13:09:48.770Z,1.97
2022-10-12T13:12:45.133Z,2.00
2022-10-12T13:15:22.099Z,2.00
2022-10-12T13:18:18.548Z,1.80
2022-10-12T13:20:54.734Z,1.40
2022-10-12T13:23:25.921Z,1.80
2022-10-12T13:26:03.981Z,1.77
2022-10-12T13:28:34.774Z,2.00
2022-10-12T13:31:09.244Z,1.70
2022-10-12T13:34:22.498Z,2.00
2022-10-12T13:37:00.544Z,2.10
2022-10-12T13:39:28.854Z,1.90
2022-10-12T13:42:01.591Z,1.47
2022-10-12T13:44:36.217Z,1.90
2022-10-12T13:47:24.641Z,1.70
2022-10-12T13:49:52.276Z,1.70
2022-10-12T13:52:27.274Z,2.10
2022-10-12T13:54:58.449Z,1.87
2022-10-12T13:57:31.977Z,1.50
2022-10-12T14:00:04.476Z,2.00
2022-10-12T14:02:34.417Z,2.50
2022-10-12T14:05:05.251Z,2.00
2022-10-12T14:07:44.558Z,1.90
2022-10-12T14:10:24.411Z,1.40
2022-10-12T14:12:53.646Z,1.50
2022-10-12T14:15:22.114Z,1.73
2022-10-12T14:17:52.908Z,1.87
2022-10-12T14:20:37.329Z,1.80
2022-10-12T14:23:14.594Z,1.53
2022-10-12T14:25:55.824Z,2.20
2022-10-12T14:28:33.360Z,1.50
2022-10-12T14:31:00.432Z,1.60
2022-10-12T14:33:29.371Z,1.63
2022-10-12T14:36:30.483Z,1.97
2022-10-12T14:39:14.669Z,1.70
2022-10-12T14:41:50.548Z,1.80
2022-10-12T14:44:21.116Z,1.90
2022-10-12T14:47:02.465Z,1.80
2022-10-12T14:49:40.805Z,1.70
2022-10-12T14:52:19.245Z,2.07
2022-10-12T14:54:58.844Z,1.40
2022-10-12T14:57:30.194Z,1.97
2022-10-12T14:59:57.895Z,2.20
2022-10-12T15:02:30.569Z,1.70
2022-10-12T15:04:58.154Z,1.50
2022-10-12T15:07:33.035Z,1.70
2022-10-12T15:10:00.848Z,1.50
2022-10-12T15:12:30.557Z,1.73
2022-10-12T15:15:01.080Z,1.87
2022-10-12T15:17:28.081Z,1.77
2022-10-12T15:19:54.896Z,1.60
2022-10-12T15:22:30.491Z,1.60
2022-10-12T15:24:57.431Z,1.93
2022-10-12T15:27:24.329Z,1.80
2022-10-12T15:29:51.138Z,1.77
2022-10-12T15:32:18.704Z,1.80
2022-10-12T15:34:45.843Z,1.70
2022-10-12T15:37:12.744Z,1.93
2022-10-12T15:39:39.757Z,1.93
2022-10-12T15:42:06.579Z,2.17
2022-10-12T15:44:40.892Z,2.20
2022-10-12T15:47:10.826Z,2.17
2022-10-12T15:49:37.949Z,2.70
2022-10-12T15:52:10.330Z,2.00
2022-10-12T15:54:37.758Z,2.50
2022-10-12T15:57:08.088Z,2.30
2022-10-12T15:59:35.009Z,2.43
2022-10-12T16:02:02.238Z,2.30
2022-10-12T16:04:29.319Z,2.20
2022-10-12T16:23:58.476Z,2.90
2022-10-12T16:37:04.033Z,3.50
2022-10-12T16:39:30.953Z,3.17
2022-10-12T16:42:40.760Z,3.20
2022-10-12T17:38:45.773Z,3.17
2022-10-12T17:41:29.306Z,3.20
2022-10-12T17:43:56.873Z,3.07
2022-10-12T17:46:39.536Z,3.40
2022-10-12T17:49:08.855Z,3.00
2022-10-12T17:51:39.061Z,3.20
2022-10-12T17:54:09.228Z,3.97
2022-10-12T18:00:09.855Z,3.60
2022-10-12T18:02:58.635Z,3.50
2022-10-12T18:12:40.046Z,3.53
2022-10-12T18:15:07.806Z,3.70
2022-10-12T18:28:21.483Z,3.63
2022-10-12T18:31:29.210Z,4.00
2022-10-12T18:34:09.784Z,4.30
2022-10-12T18:36:37.203Z,3.80
2022-10-12T18:39:04.737Z,4.07
2022-10-12T18:41:32.295Z,4.77
2022-10-12T18:44:01.225Z,4.33
2022-10-12T18:46:34.148Z,3.50
2022-10-12T18:49:05.016Z,3.80
2022-10-12T18:51:34.492Z,3.93
2022-10-12T18:54:02.270Z,4.20
2022-10-12T18:56:30.805Z,3.97
2022-10-12T18:58:59.942Z,4.50
2022-10-12T19:01:29.064Z,3.73
2022-10-12T19:03:57.349Z,3.90
2022-10-12T19:06:27.842Z,3.73
2022-10-12T19:08:56.311Z,4.00
2022-10-12T19:11:24.986Z,4.57
2022-10-12T19:14:02.592Z,4.00
2022-10-12T19:16:32.209Z,4.87
2022-10-12T19:19:01.925Z,4.70
2022-10-12T19:21:30.275Z,4.33
2022-10-12T19:23:57.327Z,4.20
2022-10-12T19:26:27.055Z,4.20
2022-10-12T19:28:55.542Z,4.63
2022-10-12T19:31:31.846Z,4.10
2022-10-12T19:34:02.800Z,3.80
2022-10-12T19:36:30.599Z,3.87
2022-10-12T19:38:58.774Z,4.60
2022-10-12T19:41:27.085Z,4.30
2022-10-12T19:43:57.417Z,4.57
2022-10-12T19:46:24.351Z,4.53
2022-10-12T19:49:00.694Z,5.00
2022-10-12T19:51:29.419Z,4.30
2022-10-12T19:53:58.706Z,4.43
2022-10-12T19:56:26.729Z,4.07
2022-10-12T20:01:38.821Z,4.40
2022-10-12T20:04:10.098Z,4.33
2022-10-12T20:06:37.625Z,4.30
2022-10-12T20:09:05.613Z,4.47
2022-10-12T20:11:35.950Z,4.57
2022-10-12T20:14:06.699Z,4.67
2022-10-12T20:16:35.275Z,4.90
2022-10-12T20:19:07.032Z,4.90
2022-10-12T20:21:37.123Z,4.60
2022-10-12T20:24:04.283Z,4.40
2022-10-12T20:26:31.408Z,5.00
2022-10-12T20:29:01.023Z,4.60
2022-10-12T20:31:29.498Z,5.27
2022-10-12T20:33:58.010Z,5.30
2022-10-12T20:36:31.762Z,5.90
2022-10-12T20:38:59.524Z,6.27
2022-10-12T20:41:32.780Z,5.40
2022-10-12T20:44:00.952Z,5.77
2022-10-12T20:46:28.975Z,5.73
2022-10-12T20:49:01.998Z,5.80
2022-10-12T20:51:37.077Z,5.80
2022-10-12T20:54:05.873Z,5.47
2022-10-12T20:56:33.605Z,6.10
2022-10-12T20:59:01.000Z,6.07
2022-10-12T21:01:36.966Z,6.20
2022-10-12T21:04:04.015Z,5.93
2022-10-12T21:06:30.847Z,6.10
2022-10-12T21:09:06.901Z,6.33
2022-10-12T21:11:43.795Z,5.53
2022-10-12T21:14:26.552Z,6.27
2022-10-12T21:16:56.080Z,6.07
2022-10-12T21:19:23.021Z,6.50
2022-10-12T21:21:49.892Z,6.93
2022-10-12T21:24:17.090Z,6.40
2022-10-12T21:26:44.474Z,6.13
2022-10-12T21:29:18.017Z,6.37
2022-10-12T21:31:45.543Z,6.00
2022-10-12T21:34:26.065Z,6.73
2022-10-12T21:36:54.242Z,6.80
2022-10-12T21:39:21.255Z,7.53
2022-10-12T21:41:48.093Z,6.70
2022-10-12T21:44:15.285Z,6.10
2022-10-12T21:46:42.356Z,6.40
2022-10-12T21:49:10.739Z,5.77
2022-10-12T21:51:43.685Z,6.33
2022-10-12T21:54:10.825Z,6.03
2022-10-12T21:56:39.821Z,5.97
2022-10-12T21:59:07.185Z,6.33
2022-10-12T22:01:43.862Z,6.30
2022-10-12T22:04:14.865Z,6.57
2022-10-12T22:06:43.382Z,6.33
2022-10-12T22:09:16.446Z,6.13
2022-10-12T22:11:44.079Z,6.37
2022-10-12T22:14:15.104Z,6.50
2022-10-12T22:16:43.378Z,6.43
2022-10-12T22:19:15.217Z,6.60
2022-10-12T22:21:42.319Z,6.50
2022-10-12T22:24:09.243Z,6.30
2022-10-12T22:26:36.320Z,6.43
2022-10-12T22:29:07.587Z,6.93
2022-10-12T22:31:35.489Z,7.37
2022-10-12T22:34:11.101Z,6.80
2022-10-12T22:36:47.234Z,6.60
2022-10-12T22:39:17.747Z,7.20
2022-10-12T22:41:56.886Z,7.53
2022-10-12T22:44:23.721Z,7.30
2022-10-12T22:46:50.556Z,7.67
2022-10-12T22:49:17.531Z,7.40
2022-10-12T22:51:44.399Z,8.47
2022-10-12T22:54:13.387Z,7.53
2022-10-12T22:56:41.814Z,7.23
2022-10-12T22:59:14.102Z,7.47
2022-10-12T23:01:44.461Z,7.30
2022-10-12T23:04:11.408Z,7.30
2022-10-12T23:06:38.277Z,7.33
2022-10-12T23:09:05.164Z,7.50
2022-10-12T23:11:32.494Z,8.03
2022-10-12T23:13:59.604Z,7.23
2022-10-12T23:16:29.611Z,8.00
2022-10-12T23:19:03.635Z,8.40
2022-10-12T23:21:38.286Z,8.20
2022-10-12T23:24:11.885Z,8.70
2022-10-12T23:26:38.720Z,8.47
2022-10-12T23:29:05.737Z,7.93
2022-10-12T23:31:35.736Z,8.57
2022-10-12T23:34:05.921Z,8.40
2022-10-12T23:36:33.010Z,9.70
2022-10-12T23:39:06.747Z,8.67
2022-10-12T23:41:33.691Z,9.90
2022-10-12T23:44:04.477Z,8.53
2022-10-12T23:46:31.429Z,9.00
2022-10-12T23:48:58.542Z,8.70
2022-10-12T23:51:25.346Z,8.57
2022-10-12T23:53:52.192Z,8.50
2022-10-12T23:56:19.130Z,9.00
2022-10-12T23:58:46.080Z,9.03
